createdAt,value
2018-10-01T00:00:07.026Z,50.99
2018-10-01T00:01:16.926Z,51.09
2018-10-01T00:02:26.820Z,50.52
2018-10-01T00:03:37.172Z,49.76
2018-10-01T00:04:47.067Z,49.56
2018-10-01T00:05:57.232Z,49.56
2018-10-01T00:07:06.855Z,49.85
2018-10-01T00:08:16.747Z,49.85
2018-10-01T00:09:26.927Z,49.76
2018-10-01T00:10:36.277Z,49.85
2018-10-01T00:11:45.896Z,49.08
2018-10-01T00:12:55.516Z,49.85
2018-10-01T00:14:05.417Z,47.94
2018-10-01T00:15:14.755Z,47.94
2018-10-01T00:16:24.925Z,49.18
2018-10-01T00:17:34.822Z,48.04
2018-10-01T00:18:44.437Z,46.89
2018-10-01T00:19:54.338Z,46.13
2018-10-01T00:21:04.244Z,45.28
2018-10-01T00:22:13.599Z,45.37
2018-10-01T00:23:23.487Z,44.04
2018-10-01T00:24:33.113Z,44.13
2018-10-01T00:25:43.279Z,43.08
2018-10-01T00:26:53.174Z,42.99
2018-10-01T00:28:03.347Z,43.84
2018-10-01T00:29:12.970Z,43.84
2018-10-01T00:30:23.140Z,44.7
2018-10-01T00:31:33.034Z,44.8
2018-10-01T00:32:42.935Z,44.89
2018-10-01T00:33:52.282Z,44.89
2018-10-01T00:35:01.902Z,44.99
2018-10-01T00:36:11.256Z,45.28
2018-10-01T00:37:21.147Z,45.18
2018-10-01T00:38:31.196Z,45.08
2018-10-01T00:39:41.103Z,44.7
2018-10-01T00:40:50.452Z,44.32
2018-10-01T00:41:59.807Z,43.37
2018-10-01T00:43:09.705Z,42.6
2018-10-01T00:44:19.332Z,42.41
2018-10-01T00:45:29.231Z,42.13
2018-10-01T00:46:39.121Z,41.08
2018-10-01T00:47:49.294Z,41.36
2018-10-01T00:48:59.193Z,40.8
2018-10-01T00:50:09.414Z,39.94
2018-10-01T00:51:18.759Z,39.08
2018-10-01T00:52:28.941Z,39.36
2018-10-01T00:53:38.565Z,38.89
2018-10-01T00:54:48.732Z,37.84
2018-10-01T00:55:58.625Z,37.08
2018-10-01T00:57:08.248Z,36.32
2018-10-01T00:58:18.151Z,35.36
2018-10-01T00:59:28.048Z,34.69
2018-10-01T01:00:37.674Z,35.27
2018-10-01T01:01:47.576Z,34.69
2018-10-01T01:02:56.920Z,33.74
2018-10-01T01:04:06.813Z,33.17
2018-10-01T01:05:16.981Z,32.68
2018-10-01T01:06:26.868Z,32.6
2018-10-01T01:07:36.211Z,31.64
2018-10-01T01:08:46.104Z,30.88
2018-10-01T01:09:56.006Z,31.07
2018-10-01T01:11:05.896Z,30.69
2018-10-01T01:12:15.809Z,30.02
2018-10-01T01:13:25.431Z,29.64
2018-10-01T01:14:34.777Z,29.64
2018-10-01T01:15:44.955Z,27.73
2018-10-01T01:16:54.848Z,28.78
2018-10-01T01:18:04.744Z,29.16
2018-10-01T01:19:14.512Z,28.97
2018-10-01T01:20:24.133Z,29.36
2018-10-01T01:21:34.300Z,28.97
2018-10-01T01:22:44.194Z,29.07
2018-10-01T01:23:54.085Z,28.88
2018-10-01T01:25:03.985Z,28.88
2018-10-01T01:26:13.875Z,28.69
2018-10-01T01:27:24.133Z,28.21
2018-10-01T01:28:34.021Z,28.21
2018-10-01T01:29:43.372Z,28.5
2018-10-01T01:30:53.265Z,28.31
2018-10-01T01:32:02.336Z,28.02
2018-10-01T01:33:11.953Z,28.12
2018-10-01T01:34:21.581Z,27.26
2018-10-01T01:35:31.755Z,27.64
2018-10-01T01:36:41.655Z,28.4
2018-10-01T01:37:50.997Z,28.5
2018-10-01T01:39:01.171Z,28.02
2018-10-01T01:40:11.061Z,28.12
2018-10-01T01:41:20.958Z,27.83
2018-10-01T01:42:30.350Z,28.02
2018-10-01T01:43:40.238Z,27.45
2018-10-01T01:44:50.130Z,27.55
2018-10-01T01:46:00.301Z,27.55
2018-10-01T01:47:10.474Z,26.31
2018-10-01T01:48:19.867Z,26.5
2018-10-01T01:49:29.766Z,28.88
2018-10-01T01:50:39.112Z,27.36
2018-10-01T01:51:48.731Z,26.02
2018-10-01T01:52:58.906Z,26.02
2018-10-01T01:54:08.846Z,25.54
2018-10-01T01:55:19.021Z,25.73
2018-10-01T01:56:28.909Z,25.54
2018-10-01T01:57:38.523Z,26.02
2018-10-01T01:58:48.700Z,25.73
2018-10-01T01:59:58.953Z,25.35
2018-10-01T02:01:08.851Z,25.45
2018-10-01T02:02:18.520Z,24.78
2018-10-01T02:03:27.862Z,24.68
2018-10-01T02:04:37.486Z,25.07
2018-10-01T02:05:47.391Z,24.68
2018-10-01T02:06:57.289Z,24.11
2018-10-01T02:08:07.183Z,24.11
2018-10-01T02:09:17.360Z,23.25
2018-10-01T02:10:27.542Z,23.16
2018-10-01T02:11:37.716Z,22.88
2018-10-01T02:12:47.062Z,22.4
2018-10-01T02:13:56.681Z,22.49
2018-10-01T02:15:06.025Z,23.25
2018-10-01T02:16:15.647Z,22.59
2018-10-01T02:17:25.543Z,22.97
2018-10-01T02:18:34.890Z,22.49
2018-10-01T02:19:45.046Z,21.54
2018-10-01T02:20:54.663Z,20.87
2018-10-01T02:22:04.279Z,20.29
2018-10-01T02:23:14.173Z,20.39
2018-10-01T02:24:23.529Z,20.29
2018-10-01T02:25:32.870Z,19.82
2018-10-01T02:26:42.515Z,20.01
2018-10-01T02:27:52.133Z,20.48
2018-10-01T02:29:01.755Z,20.2
2018-10-01T02:30:11.381Z,19.92
2018-10-01T02:31:21.555Z,19.35
2018-10-01T02:32:31.473Z,18.59
2018-10-01T02:33:41.096Z,18.11
2018-10-01T02:34:51.260Z,17.33
2018-10-01T02:36:01.147Z,17.62
2018-10-01T02:37:11.036Z,16.96
2018-10-01T02:38:20.655Z,16.48
2018-10-01T02:39:30.856Z,16.19
2018-10-01T02:40:40.761Z,15.81
2018-10-01T02:41:50.667Z,15.81
2018-10-01T02:43:00.832Z,15.81
2018-10-01T02:44:11.005Z,16.11
2018-10-01T02:45:20.941Z,15.62
2018-10-01T02:46:30.286Z,15.53
2018-10-01T02:47:40.302Z,15.91
2018-10-01T02:48:50.854Z,15.34
2018-10-01T02:50:00.751Z,15.43
2018-10-01T02:51:10.645Z,15.43
2018-10-01T02:52:20.825Z,15.72
2018-10-01T02:53:30.721Z,15.53
2018-10-01T02:54:40.360Z,14.95
2018-10-01T02:55:49.705Z,15.53
2018-10-01T02:56:59.876Z,15.53
2018-10-01T02:58:10.041Z,14.48
2018-10-01T02:59:20.220Z,14.39
2018-10-01T03:00:30.130Z,14.29
2018-10-01T03:01:40.347Z,14.1
2018-10-01T03:02:50.265Z,13.24
2018-10-01T03:04:00.169Z,12.86
2018-10-01T03:05:09.513Z,12.29
2018-10-01T03:06:19.692Z,11.62
2018-10-01T03:07:29.587Z,11.91
2018-10-01T03:08:38.664Z,11.43
2018-10-01T03:09:48.871Z,10.86
2018-10-01T03:10:58.764Z,10.96
2018-10-01T03:12:09.014Z,10.67
2018-10-01T03:13:19.413Z,10.96
2018-10-01T03:14:29.066Z,10.86
2018-10-01T03:15:39.014Z,10.57
2018-10-01T03:16:48.373Z,11.05
2018-10-01T03:17:58.265Z,11.43
2018-10-01T03:19:08.436Z,11.52
2018-10-01T03:20:18.335Z,11.05
2018-10-01T03:21:28.672Z,11.43
2018-10-01T03:22:38.029Z,11.33
2018-10-01T03:23:48.204Z,11.62
2018-10-01T03:24:58.374Z,10.86
2018-10-01T03:26:08.283Z,11.15
2018-10-01T03:27:17.632Z,10.67
2018-10-01T03:28:27.525Z,10.1
2018-10-01T03:29:37.419Z,10.19
2018-10-01T03:30:47.596Z,10.57
2018-10-01T03:31:56.962Z,10.76
2018-10-01T03:33:06.594Z,11.05
2018-10-01T03:34:16.487Z,10.38
2018-10-01T03:35:26.392Z,10.57
2018-10-01T03:36:36.034Z,10.2
2018-10-01T03:37:46.223Z,10.39
2018-10-01T03:38:56.461Z,10.57
2018-10-01T03:40:05.589Z,11.33
2018-10-01T03:41:15.757Z,10.86
2018-10-01T03:42:25.647Z,11.24
2018-10-01T03:43:35.268Z,11.33
2018-10-01T03:44:45.451Z,10.76
2018-10-01T03:45:55.082Z,10.57
2018-10-01T03:47:04.711Z,10.28
2018-10-01T03:48:14.602Z,11.33
2018-10-01T03:49:24.494Z,11.15
2018-10-01T03:50:34.669Z,10.96
2018-10-01T03:51:44.011Z,10.57
2018-10-01T03:52:53.912Z,10.38
2018-10-01T03:54:03.534Z,9.81
2018-10-01T03:55:13.732Z,9.62
2018-10-01T03:56:23.907Z,10
2018-10-01T03:57:33.529Z,9.81
2018-10-01T03:58:43.701Z,9.72
2018-10-01T03:59:53.623Z,9.43
2018-10-01T04:01:03.249Z,9.05
2018-10-01T04:02:13.159Z,8.76
2018-10-01T04:03:23.036Z,8.48
2018-10-01T04:04:32.657Z,8.95
2018-10-01T04:05:42.837Z,8.29
2018-10-01T04:06:52.459Z,8.29
2018-10-01T04:08:02.410Z,8.19
2018-10-01T04:09:12.316Z,8.67
2018-10-01T04:10:22.493Z,8.09
2018-10-01T04:11:32.124Z,8
2018-10-01T04:12:42.054Z,8.38
2018-10-01T04:13:52.267Z,8.38
2018-10-01T04:15:02.446Z,9.62
2018-10-01T04:16:12.060Z,9.52
2018-10-01T04:17:22.227Z,8.57
2018-10-01T04:18:32.123Z,8.57
2018-10-01T04:19:42.297Z,8.19
2018-10-01T04:20:52.477Z,8.86
2018-10-01T04:22:02.373Z,8.95
2018-10-01T04:23:12.269Z,8.95
2018-10-01T04:24:22.168Z,9.91
2018-10-01T04:25:31.786Z,9.72
2018-10-01T04:26:41.135Z,10.19
2018-10-01T04:27:50.751Z,10.48
2018-10-01T04:29:00.367Z,10.1
2018-10-01T04:30:10.579Z,10.1
2018-10-01T04:31:20.519Z,10.48
2018-10-01T04:32:30.416Z,10.48
2018-10-01T04:33:40.321Z,10.57
2018-10-01T04:34:49.935Z,11.05
2018-10-01T04:35:59.831Z,10.86
2018-10-01T04:37:09.181Z,11.33
2018-10-01T04:38:19.082Z,11.62
2018-10-01T04:39:28.425Z,11.52
2018-10-01T04:40:38.204Z,11.33
2018-10-01T04:41:48.154Z,11.05
2018-10-01T04:42:57.507Z,11.15
2018-10-01T04:44:07.132Z,11.24
2018-10-01T04:45:17.305Z,12.29
2018-10-01T04:46:27.211Z,12.1
2018-10-01T04:47:36.847Z,11.43
2018-10-01T04:48:46.509Z,12
2018-10-01T04:49:55.861Z,12
2018-10-01T04:51:05.481Z,11.52
2018-10-01T04:52:15.373Z,12.67
2018-10-01T04:53:25.538Z,12.86
2018-10-01T04:54:35.435Z,13.15
2018-10-01T04:55:45.324Z,13.15
2018-10-01T04:56:54.939Z,13.24
2018-10-01T04:58:04.563Z,13.53
2018-10-01T04:59:14.329Z,13.81
2018-10-01T05:00:24.222Z,14
2018-10-01T05:01:33.842Z,14.47
2018-10-01T05:02:43.731Z,14.28
2018-10-01T05:03:53.618Z,14.28
2018-10-01T05:05:03.235Z,14.57
2018-10-01T05:06:12.699Z,14.18
2018-10-01T05:07:23.144Z,14.28
2018-10-01T05:08:33.038Z,14.28
2018-10-01T05:09:42.931Z,14.09
2018-10-01T05:10:52.826Z,14.57
2018-10-01T05:12:02.765Z,14.76
2018-10-01T05:13:12.390Z,15.42
2018-10-01T05:14:22.004Z,15.9
2018-10-01T05:15:31.627Z,16.38
2018-10-01T05:16:41.531Z,16.19
2018-10-01T05:17:51.148Z,17.71
2018-10-01T05:19:00.491Z,19.42
2018-10-01T05:20:10.386Z,19.42
2018-10-01T05:21:20.550Z,20
2018-10-01T05:22:30.451Z,20.47
2018-10-01T05:23:40.622Z,20.76
2018-10-01T05:24:50.513Z,21.14
2018-10-01T05:25:59.854Z,21.61
2018-10-01T05:27:10.222Z,22.19
2018-10-01T05:28:20.432Z,21.23
2018-10-01T05:29:30.373Z,21.71
2018-10-01T05:30:40.266Z,20.85
2018-10-01T05:31:49.342Z,20.76
2018-10-01T05:32:59.236Z,21.61
2018-10-01T05:34:09.407Z,20.95
2018-10-01T05:35:19.586Z,21.23
2018-10-01T05:36:29.749Z,22.38
2018-10-01T05:37:39.691Z,22.56
2018-10-01T05:38:49.379Z,22.75
2018-10-01T05:39:58.993Z,22.47
2018-10-01T05:41:08.340Z,22.09
2018-10-01T05:42:17.682Z,22.47
2018-10-01T05:43:27.918Z,22.19
2018-10-01T05:44:38.094Z,22.56
2018-10-01T05:45:47.994Z,22.28
2018-10-01T05:46:57.970Z,22.19
2018-10-01T05:48:07.867Z,21.9
2018-10-01T05:49:17.525Z,22.19
2018-10-01T05:50:27.212Z,22.09
2018-10-01T05:51:36.842Z,21.71
2018-10-01T05:52:47.013Z,21.9
2018-10-01T05:53:56.900Z,21.42
2018-10-01T05:55:06.884Z,21.23
2018-10-01T05:56:16.504Z,21.51
2018-10-01T05:57:26.126Z,21.23
2018-10-01T05:58:36.135Z,21.14
2018-10-01T05:59:46.333Z,20.85
2018-10-01T06:00:55.950Z,20.66
2018-10-01T06:02:05.293Z,20.47
2018-10-01T06:03:15.505Z,20.18
2018-10-01T06:04:25.668Z,20.28
2018-10-01T06:05:35.918Z,19.9
2018-10-01T06:06:45.542Z,19.79
2018-10-01T06:07:55.702Z,20.28
2018-10-01T06:09:04.775Z,20.09
2018-10-01T06:10:14.395Z,19.71
2018-10-01T06:11:24.283Z,19.51
2018-10-01T06:12:34.172Z,19.51
2018-10-01T06:13:44.066Z,19.13
2018-10-01T06:14:54.228Z,19.04
2018-10-01T06:16:04.118Z,18.94
2018-10-01T06:17:13.736Z,18.84
2018-10-01T06:18:23.632Z,18.55
2018-10-01T06:19:33.249Z,17.9
2018-10-01T06:20:43.413Z,17.9
2018-10-01T06:21:53.030Z,18.08
2018-10-01T06:23:02.103Z,18.37
2018-10-01T06:24:12.281Z,18.08
2018-10-01T06:25:22.570Z,17.89
2018-10-01T06:26:32.474Z,17.6
2018-10-01T06:27:42.366Z,17.03
2018-10-01T06:28:51.438Z,16.27
2018-10-01T06:30:01.608Z,15.99
2018-10-01T06:31:11.228Z,15.32
2018-10-01T06:32:20.840Z,14.84
2018-10-01T06:33:30.453Z,14.56
2018-10-01T06:34:40.625Z,14.56
2018-10-01T06:35:49.964Z,14.47
2018-10-01T06:37:00.135Z,14.18
2018-10-01T06:38:09.761Z,14.08
2018-10-01T06:39:19.931Z,13.89
2018-10-01T06:40:29.053Z,13.89
2018-10-01T06:41:39.355Z,13.51
2018-10-01T06:42:49.375Z,13.32
2018-10-01T06:43:59.268Z,13.6
2018-10-01T06:45:09.163Z,13.13
2018-10-01T06:46:19.327Z,13.51
2018-10-01T06:47:28.990Z,13.23
2018-10-01T06:48:38.624Z,13.89
2018-10-01T06:49:48.551Z,13.42
2018-10-01T06:50:58.831Z,13.51
2018-10-01T06:52:09.020Z,14.08
2018-10-01T06:53:18.913Z,13.99
2018-10-01T06:54:28.525Z,13.89
2018-10-01T06:55:38.689Z,14.56
2018-10-01T06:56:48.593Z,14.28
2018-10-01T06:57:57.666Z,14.75
2018-10-01T06:59:07.007Z,15.23
2018-10-01T07:00:17.198Z,15.51
2018-10-01T07:01:27.100Z,14.75
2018-10-01T07:02:37.001Z,15.8
2018-10-01T07:03:46.891Z,16.27
2018-10-01T07:04:57.050Z,16.75
2018-10-01T07:06:06.968Z,17.22
2018-10-01T07:07:16.958Z,17.71
2018-10-01T07:08:26.949Z,21.04
2018-10-01T07:09:36.985Z,21.04
2018-10-01T07:10:46.643Z,20.95
2018-10-01T07:11:56.810Z,21.71
2018-10-01T07:13:06.437Z,23.9
2018-10-01T07:14:16.377Z,24.57
2018-10-01T07:15:26.554Z,25.9
2018-10-01T07:16:35.976Z,27.9
2018-10-01T07:17:45.880Z,28.38
2018-10-01T07:18:55.225Z,28.56
2018-10-01T07:20:04.842Z,31.42
2018-10-01T07:21:14.474Z,33.14
2018-10-01T07:22:23.596Z,34.28
2018-10-01T07:23:33.706Z,34.47
2018-10-01T07:24:43.602Z,35.04
2018-10-01T07:25:53.821Z,37.32
2018-10-01T07:27:03.437Z,37.9
2018-10-01T07:28:13.326Z,40.37
2018-10-01T07:29:23.219Z,40.56
2018-10-01T07:30:32.290Z,40.56
2018-10-01T07:31:41.910Z,39.99
2018-10-01T07:32:51.847Z,40.37
2018-10-01T07:34:02.014Z,44.39
2018-10-01T07:35:11.907Z,43.32
2018-10-01T07:36:21.798Z,43.91
2018-10-01T07:37:31.699Z,46.3
2018-10-01T07:38:41.040Z,45.54
2018-10-01T07:39:51.026Z,49.16
2018-10-01T07:41:00.651Z,49.92
2018-10-01T07:42:10.271Z,49.16
2018-10-01T07:43:19.893Z,48.78
2018-10-01T07:44:29.520Z,50.01
2018-10-01T07:45:38.860Z,49.82
2018-10-01T07:46:48.285Z,51.35
2018-10-01T07:47:58.547Z,50.21
2018-10-01T07:49:07.628Z,54.02
2018-10-01T07:50:17.572Z,54.97
2018-10-01T07:51:27.190Z,55.54
2018-10-01T07:52:36.907Z,57.64
2018-10-01T07:53:46.273Z,58.3
2018-10-01T07:54:55.649Z,58.4
2018-10-01T07:56:05.003Z,60.02
2018-10-01T07:57:15.355Z,59.83
2018-10-01T07:58:25.362Z,60.11
2018-10-01T07:59:35.403Z,61.64
2018-10-01T08:00:45.339Z,59.64
2018-10-01T08:01:55.268Z,61.73
2018-10-01T08:03:04.977Z,60.52
2018-10-01T08:04:14.589Z,61
2018-10-01T08:05:24.537Z,59.19
2018-10-01T08:06:34.442Z,61.29
2018-10-01T08:07:44.362Z,60.14
2018-10-01T08:08:53.713Z,61.29
2018-10-01T08:10:03.885Z,61.19
2018-10-01T08:11:13.798Z,61.19
2018-10-01T08:12:24.012Z,62.24
2018-10-01T08:13:33.900Z,62.34
2018-10-01T08:14:43.793Z,61.48
2018-10-01T08:15:53.783Z,62.52
2018-10-01T08:17:03.783Z,63.96
2018-10-01T08:18:13.732Z,62.43
2018-10-01T08:19:23.628Z,64.72
2018-10-01T08:20:33.693Z,64.81
2018-10-01T08:21:43.510Z,64.72
2018-10-01T08:22:53.134Z,66.75
2018-10-01T08:24:02.757Z,66.66
2018-10-01T08:25:12.654Z,67.23
2018-10-01T08:26:22.515Z,66.44
2018-10-01T08:27:32.557Z,67.2
2018-10-01T08:28:42.454Z,67.9
2018-10-01T08:29:52.077Z,67.71
2018-10-01T08:31:02.564Z,68.18
2018-10-01T08:32:12.626Z,69.23
2018-10-01T08:33:22.339Z,69.43
2018-10-01T08:34:32.514Z,70.86
2018-10-01T08:35:42.541Z,69.52
2018-10-01T08:36:52.438Z,72
2018-10-01T08:38:02.798Z,71.04
2018-10-01T08:39:12.671Z,71.81
2018-10-01T08:40:22.294Z,72.57
2018-10-01T08:41:31.674Z,73.05
2018-10-01T08:42:41.467Z,72
2018-10-01T08:43:50.814Z,71.91
2018-10-01T08:45:00.513Z,73.91
2018-10-01T08:46:10.129Z,74.19
2018-10-01T08:47:20.363Z,73.91
2018-10-01T08:48:30.626Z,74.29
2018-10-01T08:49:40.793Z,74.96
2018-10-01T08:50:50.969Z,74.57
2018-10-01T08:52:00.944Z,74.19
2018-10-01T08:53:11.252Z,75.05
2018-10-01T08:54:21.043Z,74.29
2018-10-01T08:55:30.665Z,74.1
2018-10-01T08:56:40.760Z,74.48
2018-10-01T08:57:50.381Z,74.67
2018-10-01T08:59:00.349Z,73.05
2018-10-01T09:00:09.777Z,73.52
2018-10-01T09:01:19.504Z,74.96
2018-10-01T09:02:29.495Z,74.86
2018-10-01T09:03:39.323Z,74.29
2018-10-01T09:04:49.266Z,75.05
2018-10-01T09:05:59.516Z,76.01
2018-10-01T09:07:08.583Z,75.24
2018-10-01T09:08:18.671Z,76.29
2018-10-01T09:09:28.580Z,76.39
2018-10-01T09:10:38.468Z,75.81
2018-10-01T09:11:48.368Z,76.96
2018-10-01T09:12:57.997Z,77.15
2018-10-01T09:14:07.450Z,77.15
2018-10-01T09:15:17.845Z,77.25
2018-10-01T09:16:27.234Z,77.82
2018-10-01T09:17:37.073Z,77.06
2018-10-01T09:18:47.253Z,77.53
2018-10-01T09:19:57.479Z,78.05
2018-10-01T09:21:07.201Z,79.1
2018-10-01T09:22:17.454Z,78.52
2018-10-01T09:23:27.127Z,78.33
2018-10-01T09:24:37.502Z,78.91
2018-10-01T09:25:46.845Z,80.91
2018-10-01T09:26:56.192Z,79.96
2018-10-01T09:28:06.358Z,80.81
2018-10-01T09:29:15.520Z,81.2
2018-10-01T09:30:25.839Z,80.91
2018-10-01T09:31:34.908Z,80.24
2018-10-01T09:32:45.085Z,80.91
2018-10-01T09:33:54.751Z,81.2
2018-10-01T09:35:04.732Z,81.33
2018-10-01T09:36:14.972Z,81.14
2018-10-01T09:37:24.865Z,81.52
2018-10-01T09:38:34.931Z,82.19
2018-10-01T09:39:45.076Z,81.33
2018-10-01T09:40:54.969Z,83.09
2018-10-01T09:42:04.690Z,81.66
2018-10-01T09:43:14.559Z,78.99
2018-10-01T09:44:24.502Z,74.74
2018-10-01T09:45:34.538Z,65.96
2018-10-01T09:46:44.706Z,64.12
2018-10-01T09:47:54.368Z,61.25
2018-10-01T09:49:04.290Z,61.51
2018-10-01T09:50:14.364Z,65.23
2018-10-01T09:51:24.119Z,63.6
2018-10-01T09:52:34.495Z,60.08
2018-10-01T09:53:44.965Z,54.45
2018-10-01T09:54:54.661Z,50.45
2018-10-01T09:56:04.062Z,46.13
2018-10-01T09:57:14.334Z,41.27
2018-10-01T09:58:24.251Z,35.17
2018-10-01T09:59:34.766Z,32.12
2018-10-01T10:00:44.655Z,31.36
2018-10-01T10:01:54.675Z,27.73
2018-10-01T10:03:04.766Z,26.68
2018-10-01T10:04:14.958Z,26.21
2018-10-01T10:05:25.228Z,29.93
2018-10-01T10:06:35.412Z,27.34
2018-10-01T10:07:45.962Z,27.81
2018-10-01T10:08:56.396Z,27.92
2018-10-01T10:10:06.408Z,27.53
2018-10-01T10:11:16.654Z,27.15
2018-10-01T10:12:26.747Z,27.34
2018-10-01T10:13:36.639Z,24.39
2018-10-01T10:14:46.578Z,22.29
2018-10-01T10:15:56.535Z,19.34
2018-10-01T10:17:06.833Z,21.34
2018-10-01T10:18:17.021Z,26.68
2018-10-01T10:19:26.360Z,27.15
2018-10-01T10:20:36.184Z,29.64
2018-10-01T10:21:45.800Z,27.07
2018-10-01T10:22:55.695Z,26.21
2018-10-01T10:24:05.336Z,26.12
2018-10-01T10:25:15.238Z,27.92
2018-10-01T10:26:25.460Z,24.78
2018-10-01T10:27:35.976Z,29.07
2018-10-01T10:28:45.603Z,30.04
2018-10-01T10:29:55.493Z,33.18
2018-10-01T10:31:05.385Z,36.81
2018-10-01T10:32:15.215Z,33.47
2018-10-01T10:33:25.251Z,35.1
2018-10-01T10:34:35.565Z,34.33
2018-10-01T10:35:45.642Z,44.92
2018-10-01T10:36:55.802Z,46.63
2018-10-01T10:38:05.530Z,48.16
2018-10-01T10:39:15.726Z,52.92
2018-10-01T10:40:25.389Z,53.78
2018-10-01T10:41:34.737Z,55.12
2018-10-01T10:42:44.771Z,51.02
2018-10-01T10:43:54.927Z,58.36
2018-10-01T10:45:04.619Z,62.37
2018-10-01T10:46:14.824Z,53.09
2018-10-01T10:47:24.994Z,50.61
2018-10-01T10:48:34.887Z,44.04
2018-10-01T10:49:45.058Z,34.41
2018-10-01T10:50:54.401Z,29.36
2018-10-01T10:52:04.295Z,27.83
2018-10-01T10:53:14.183Z,23.16
2018-10-01T10:54:23.527Z,22.49
2018-10-01T10:55:33.154Z,21.83
2018-10-01T10:56:43.048Z,23.54
2018-10-01T10:57:53.147Z,24.11
2018-10-01T10:59:03.358Z,31.53
2018-10-01T11:00:13.524Z,29.15
2018-10-01T11:01:22.605Z,30.2
2018-10-01T11:02:31.710Z,32.96
2018-10-01T11:03:41.896Z,32.48
2018-10-01T11:04:51.510Z,30.29
2018-10-01T11:06:01.673Z,30.1
2018-10-01T11:07:11.723Z,24.48
2018-10-01T11:08:22.223Z,27.33
2018-10-01T11:09:31.668Z,24.76
2018-10-01T11:10:41.008Z,24.29
2018-10-01T11:11:50.358Z,23.53
2018-10-01T11:12:59.992Z,21.62
2018-10-01T11:14:10.131Z,17.53
2018-10-01T11:15:20.137Z,19.34
2018-10-01T11:16:30.840Z,19.81
2018-10-01T11:17:41.055Z,18.01
2018-10-01T11:18:51.862Z,21.05
2018-10-01T11:20:02.305Z,22.39
2018-10-01T11:21:12.909Z,18.29
2018-10-01T11:22:23.126Z,16.67
2018-10-01T11:23:33.379Z,15.43
2018-10-01T11:24:43.566Z,15.62
2018-10-01T11:25:53.493Z,21.15
2018-10-01T11:27:03.420Z,21.05
2018-10-01T11:28:13.622Z,23.15
2018-10-01T11:29:23.274Z,22.48
2018-10-01T11:30:32.910Z,20
2018-10-01T11:31:43.174Z,21.34
2018-10-01T11:32:53.871Z,22.29
2018-10-01T11:34:03.929Z,16.48
2018-10-01T11:35:14.293Z,20.29
2018-10-01T11:36:24.666Z,23.34
2018-10-01T11:37:34.563Z,20.1
2018-10-01T11:38:44.733Z,18.01
2018-10-01T11:39:54.630Z,13.43
2018-10-01T11:41:04.862Z,13.63
2018-10-01T11:42:14.756Z,24.4
2018-10-01T11:43:24.385Z,27.07
2018-10-01T11:44:34.315Z,24.49
2018-10-01T11:45:44.034Z,25.83
2018-10-01T11:46:54.677Z,20.01
2018-10-01T11:48:04.848Z,24.22
2018-10-01T11:49:15.053Z,19.45
2018-10-01T11:50:24.976Z,25.27
2018-10-01T11:51:34.669Z,20.69
2018-10-01T11:52:45.031Z,17.93
2018-10-01T11:53:54.690Z,19.35
2018-10-01T11:55:04.410Z,12.77
2018-10-01T11:56:14.583Z,9.72
2018-10-01T11:57:24.583Z,7.15
2018-10-01T11:58:34.562Z,9.72
2018-10-01T11:59:44.487Z,9.34
2018-10-01T12:00:54.116Z,5.05
2018-10-01T12:02:03.773Z,10.01
2018-10-01T12:03:14.010Z,13.82
2018-10-01T12:04:23.844Z,10.11
2018-10-01T12:05:33.771Z,12.01
2018-10-01T12:06:43.122Z,17.26
2018-10-01T12:07:53.351Z,11.35
2018-10-01T12:09:02.740Z,18.13
2018-10-01T12:10:13.019Z,18.03
2018-10-01T12:11:23.515Z,13.35
2018-10-01T12:12:33.148Z,24.23
2018-10-01T12:13:42.528Z,34.9
2018-10-01T12:14:52.428Z,25.18
2018-10-01T12:16:03.048Z,27.18
2018-10-01T12:17:13.354Z,36.43
2018-10-01T12:18:23.012Z,36.81
2018-10-01T12:19:33.183Z,28.99
2018-10-01T12:20:43.077Z,30.23
2018-10-01T12:21:53.018Z,42.15
2018-10-01T12:23:03.688Z,33.95
2018-10-01T12:24:13.347Z,30.23
2018-10-01T12:25:23.239Z,30.42
2018-10-01T12:26:32.867Z,31.28
2018-10-01T12:27:43.074Z,16.01
2018-10-01T12:28:53.474Z,9.44
2018-10-01T12:30:03.154Z,6.1
2018-10-01T12:31:12.503Z,5.15
2018-10-01T12:32:22.395Z,3.72
2018-10-01T12:33:32.231Z,4.28
2018-10-01T12:34:42.925Z,5.15
2018-10-01T12:35:52.878Z,3.33
2018-10-01T12:37:03.090Z,4
2018-10-01T12:38:12.991Z,0
2018-10-01T12:39:22.603Z,0
2018-10-01T12:40:32.316Z,0
2018-10-01T12:41:42.521Z,0
2018-10-01T12:42:52.943Z,0.67
2018-10-01T12:44:03.254Z,2.28
2018-10-01T12:45:13.166Z,3.81
2018-10-01T12:46:23.356Z,2.48
2018-10-01T12:47:33.260Z,5.05
2018-10-01T12:48:42.891Z,0.09
2018-10-01T12:49:53.056Z,4.28
2018-10-01T12:51:02.822Z,6.1
2018-10-01T12:52:13.041Z,3.05
2018-10-01T12:53:22.962Z,7.05
2018-10-01T12:54:32.565Z,5.52
2018-10-01T12:55:42.738Z,0
2018-10-01T12:56:52.419Z,0
2018-10-01T12:58:02.061Z,0.38
2018-10-01T12:59:11.761Z,1.62
2018-10-01T13:00:21.801Z,1.71
2018-10-01T13:01:31.696Z,1.04
2018-10-01T13:02:41.607Z,0
2018-10-01T13:03:51.565Z,6.85
2018-10-01T13:05:01.213Z,3.14
2018-10-01T13:06:12.232Z,0
2018-10-01T13:07:22.167Z,0
2018-10-01T13:08:31.797Z,0
2018-10-01T13:09:41.443Z,0
2018-10-01T13:10:51.346Z,0
2018-10-01T13:12:01.365Z,0
2018-10-01T13:13:12.003Z,0
2018-10-01T13:14:21.823Z,0
2018-10-01T13:15:32.860Z,0
2018-10-01T13:16:42.498Z,0
2018-10-01T13:17:52.134Z,0
2018-10-01T13:19:01.847Z,0
2018-10-01T13:20:11.843Z,0
2018-10-01T13:21:21.812Z,0
2018-10-01T13:22:31.707Z,0
2018-10-01T13:23:41.930Z,0
2018-10-01T13:24:52.019Z,0
2018-10-01T13:26:02.062Z,0
2018-10-01T13:27:11.681Z,0
2018-10-01T13:28:21.308Z,0
2018-10-01T13:29:31.479Z,0
2018-10-01T13:30:41.139Z,0
2018-10-01T13:31:51.331Z,0
2018-10-01T13:33:02.289Z,0
2018-10-01T13:34:11.643Z,0
2018-10-01T13:35:21.546Z,0
2018-10-01T13:36:31.878Z,0
2018-10-01T13:37:42.120Z,0
2018-10-01T13:38:52.358Z,0
2018-10-01T13:40:02.255Z,0
2018-10-01T13:41:12.498Z,0
2018-10-01T13:42:22.621Z,0
2018-10-01T13:43:32.601Z,0
2018-10-01T13:44:42.630Z,0
2018-10-01T13:45:52.268Z,0
2018-10-01T13:47:01.908Z,0
2018-10-01T13:48:12.272Z,0
2018-10-01T13:49:22.399Z,0
2018-10-01T13:50:32.343Z,0
2018-10-01T13:51:42.471Z,0
2018-10-01T13:52:52.853Z,0
2018-10-01T13:54:02.902Z,0
2018-10-01T13:55:12.448Z,0
2018-10-01T13:56:22.723Z,0
2018-10-01T13:57:32.676Z,0
2018-10-01T13:58:42.590Z,0
2018-10-01T13:59:52.771Z,0
2018-10-01T14:01:02.682Z,0
2018-10-01T14:02:12.565Z,0
2018-10-01T14:03:22.474Z,0
2018-10-01T14:04:32.172Z,0
2018-10-01T14:05:42.192Z,0
2018-10-01T14:06:52.602Z,0
2018-10-01T14:08:03.360Z,0
2018-10-01T14:09:14.057Z,0
2018-10-01T14:10:24.254Z,0
2018-10-01T14:11:34.176Z,0
2018-10-01T14:12:44.363Z,0
2018-10-01T14:13:53.904Z,0
2018-10-01T14:15:04.538Z,0
2018-10-01T14:16:13.912Z,0
2018-10-01T14:17:23.816Z,2.19
2018-10-01T14:18:33.726Z,6.28
2018-10-01T14:19:43.110Z,0
2018-10-01T14:20:53.488Z,0
2018-10-01T14:22:03.137Z,0.38
2018-10-01T14:23:13.053Z,4.66
2018-10-01T14:24:22.953Z,0
2018-10-01T14:25:32.071Z,0
2018-10-01T14:26:43.055Z,0
2018-10-01T14:27:52.984Z,0.57
2018-10-01T14:29:02.604Z,0
2018-10-01T14:30:12.515Z,0
2018-10-01T14:31:22.254Z,0
2018-10-01T14:32:31.611Z,0
2018-10-01T14:33:41.505Z,0
2018-10-01T14:34:51.115Z,0
2018-10-01T14:36:01.304Z,2.09
2018-10-01T14:37:11.031Z,2.76
2018-10-01T14:38:20.716Z,0
2018-10-01T14:39:30.394Z,3.14
2018-10-01T14:40:40.071Z,6.38
2018-10-01T14:41:49.680Z,5.9
2018-10-01T14:42:59.978Z,3.23
2018-10-01T14:44:10.574Z,7.71
2018-10-01T14:45:20.462Z,5.24
2018-10-01T14:46:30.382Z,9.71
2018-10-01T14:47:40.279Z,0
2018-10-01T14:48:50.204Z,4.57
2018-10-01T14:50:00.087Z,6.28
2018-10-01T14:51:09.570Z,12.85
2018-10-01T14:52:19.262Z,2.76
2018-10-01T14:53:29.419Z,7.52
2018-10-01T14:54:38.519Z,11.14
2018-10-01T14:55:48.920Z,5.62
2018-10-01T14:56:59.261Z,9.71
2018-10-01T14:58:09.329Z,13.23
2018-10-01T14:59:19.261Z,13.14
2018-10-01T15:00:29.713Z,8.18
2018-10-01T15:01:40.410Z,12.38
2018-10-01T15:02:50.401Z,13.23
2018-10-01T15:04:00.298Z,9.23
2018-10-01T15:05:10.196Z,11.61
2018-10-01T15:06:20.119Z,11.52
2018-10-01T15:07:30.111Z,20.37
2018-10-01T15:08:40.039Z,14
2018-10-01T15:09:50.201Z,10
2018-10-01T15:11:00.198Z,5.33
2018-10-01T15:12:10.581Z,2.85
2018-10-01T15:13:21.241Z,5.33
2018-10-01T15:14:30.821Z,0
2018-10-01T15:15:40.442Z,0
2018-10-01T15:16:50.336Z,0.38
2018-10-01T15:18:00.042Z,0
2018-10-01T15:19:10.157Z,0